createdAt,value
2022-09-20T00:01:33.559Z,12.31
2022-09-20T00:04:05.531Z,12.27
2022-09-20T00:06:34.471Z,12.35
2022-09-20T00:09:03.577Z,12.20
2022-09-20T00:11:34.828Z,12.26
2022-09-20T00:14:06.121Z,12.27
2022-09-20T00:16:38.079Z,12.19
2022-09-20T00:19:07.294Z,12.14
2022-09-20T00:21:37.744Z,12.12
2022-09-20T00:24:06.097Z,12.10
2022-09-20T00:26:33.904Z,12.18
2022-09-20T00:29:01.705Z,12.15
2022-09-20T00:31:29.513Z,12.03
2022-09-20T00:34:17.703Z,11.96
2022-09-20T00:36:45.517Z,12.01
2022-09-20T00:39:15.613Z,12.04
2022-09-20T00:41:44.011Z,12.03
2022-09-20T00:44:49.976Z,12.08
2022-09-20T00:47:28.784Z,12.05
2022-09-20T00:50:08.732Z,12.03
2022-09-20T00:52:37.017Z,11.99
2022-09-20T00:55:08.782Z,11.89
2022-09-20T00:57:38.705Z,11.96
2022-09-20T01:00:11.917Z,11.92
2022-09-20T01:02:46.254Z,11.87
2022-09-20T01:05:16.289Z,11.85
2022-09-20T01:07:47.046Z,11.88
2022-09-20T01:10:14.689Z,11.90
2022-09-20T01:12:44.374Z,11.88
2022-09-20T01:15:15.581Z,11.81
2022-09-20T01:17:48.530Z,11.76
2022-09-20T01:20:30.106Z,11.75
2022-09-20T01:23:31.637Z,11.83
2022-09-20T01:26:05.479Z,11.79
2022-09-20T01:28:33.939Z,11.71
2022-09-20T01:31:26.716Z,11.79
2022-09-20T01:34:21.755Z,11.74
2022-09-20T01:36:53.334Z,11.74
2022-09-20T01:39:42.667Z,11.67
2022-09-20T01:42:13.550Z,11.51
2022-09-20T01:45:23.995Z,11.58
2022-09-20T01:48:04.922Z,11.57
2022-09-20T01:51:02.112Z,11.48
2022-09-20T01:54:00.862Z,11.43
2022-09-20T01:56:59.457Z,11.36
2022-09-20T02:00:06.163Z,11.34
2022-09-20T02:02:54.011Z,11.27
2022-09-20T02:05:43.292Z,11.21
2022-09-20T02:08:28.243Z,11.20
2022-09-20T02:11:12.454Z,11.11
2022-09-20T02:13:40.150Z,11.25
2022-09-20T02:16:32.039Z,11.29
2022-09-20T02:19:32.673Z,11.30
2022-09-20T02:22:40.783Z,11.32
2022-09-20T02:26:11.111Z,11.29
2022-09-20T02:28:58.943Z,11.27
2022-09-20T02:32:16.946Z,11.28
2022-09-20T02:35:25.688Z,11.20
2022-09-20T02:38:06.530Z,11.16
2022-09-20T02:41:23.610Z,11.13
2022-09-20T02:44:15.184Z,11.06
2022-09-20T02:47:18.015Z,11.11
2022-09-20T02:50:09.708Z,11.12
2022-09-20T02:53:00.634Z,11.15
2022-09-20T02:56:12.446Z,11.19
2022-09-20T02:59:41.833Z,11.19
2022-09-20T03:02:56.905Z,11.27
2022-09-20T03:05:33.166Z,11.28
2022-09-20T03:08:15.731Z,11.28
2022-09-20T03:11:06.601Z,11.25
2022-09-20T03:14:23.124Z,11.15
2022-09-20T03:17:18.302Z,11.24
2022-09-20T03:20:35.773Z,11.22
2022-09-20T03:23:24.759Z,11.19
2022-09-20T03:26:08.110Z,11.06
2022-09-20T03:29:04.253Z,11.11
2022-09-20T03:31:56.128Z,11.08
2022-09-20T03:34:42.217Z,11.05
2022-09-20T03:37:30.719Z,11.02
2022-09-20T03:40:29.695Z,10.86
2022-09-20T03:43:34.347Z,10.86
2022-09-20T03:46:14.345Z,10.84
2022-09-20T03:49:32.538Z,10.77
2022-09-20T03:52:41.464Z,10.75
2022-09-20T03:55:49.786Z,10.72
2022-09-20T03:59:09.035Z,10.73
2022-09-20T04:02:32.832Z,10.66
2022-09-20T04:05:10.583Z,10.54
2022-09-20T04:08:08.198Z,10.60
2022-09-20T04:11:12.924Z,10.61
2022-09-20T04:13:51.606Z,10.56
2022-09-20T04:17:31.570Z,10.58
2022-09-20T04:20:09.783Z,10.49
2022-09-20T04:22:38.562Z,10.59
2022-09-20T04:25:20.005Z,10.49
2022-09-20T04:27:52.787Z,10.55
2022-09-20T04:30:28.959Z,10.54
2022-09-20T04:33:13.819Z,10.44
2022-09-20T04:36:15.495Z,10.49
2022-09-20T04:38:43.642Z,10.44
2022-09-20T04:41:33.957Z,10.40
2022-09-20T04:44:38.919Z,10.45
2022-09-20T04:47:40.223Z,10.42
2022-09-20T04:51:18.439Z,10.39
2022-09-20T04:54:35.005Z,10.39
2022-09-20T04:57:32.909Z,10.42
2022-09-20T05:00:15.342Z,10.43
2022-09-20T05:03:11.196Z,10.46
2022-09-20T05:05:56.020Z,10.41
2022-09-20T05:09:04.027Z,10.38
2022-09-20T05:11:54.511Z,10.37
2022-09-20T05:15:05.270Z,10.36
2022-09-20T05:18:06.420Z,10.39
2022-09-20T05:20:49.545Z,10.37
2022-09-20T05:23:38.286Z,10.38
2022-09-20T05:26:13.143Z,10.37
2022-09-20T05:29:17.627Z,10.26
2022-09-20T05:31:55.012Z,10.40
2022-09-20T05:34:33.426Z,10.40
2022-09-20T05:37:17.357Z,10.32
2022-09-20T05:40:31.775Z,10.25
2022-09-20T05:43:26.406Z,10.20
2022-09-20T05:46:32.510Z,10.37
2022-09-20T05:49:14.633Z,10.40
2022-09-20T05:51:57.447Z,10.46
2022-09-20T05:55:04.577Z,10.51
2022-09-20T05:57:50.827Z,10.52
2022-09-20T06:00:21.646Z,10.50
2022-09-20T06:03:36.877Z,10.54
2022-09-20T06:06:18.178Z,10.53
2022-09-20T06:09:13.564Z,10.54
2022-09-20T06:12:20.246Z,10.54
2022-09-20T06:15:17.135Z,10.56
2022-09-20T06:18:24.134Z,10.59
2022-09-20T06:20:55.124Z,10.61
2022-09-20T06:23:23.374Z,10.64
2022-09-20T06:26:06.728Z,10.60
2022-09-20T06:28:41.970Z,10.68
2022-09-20T06:31:11.390Z,10.76
2022-09-20T06:34:05.965Z,10.79
2022-09-20T06:37:05.839Z,10.81
2022-09-20T06:40:04.559Z,10.92
2022-09-20T06:42:32.717Z,10.95
2022-09-20T06:45:00.456Z,11.00
2022-09-20T06:47:28.247Z,11.00
2022-09-20T06:49:56.703Z,10.96
2022-09-20T06:52:24.551Z,10.99
2022-09-20T06:54:55.599Z,11.11
2022-09-20T06:57:37.842Z,11.17
2022-09-20T07:00:10.192Z,11.22
2022-09-20T07:02:38.012Z,11.26
2022-09-20T07:05:07.569Z,11.23
2022-09-20T07:07:35.185Z,11.26
2022-09-20T07:10:03.092Z,11.37
2022-09-20T07:12:35.022Z,11.41
2022-09-20T07:15:03.410Z,11.45
2022-09-20T07:17:31.010Z,11.41
2022-09-20T07:19:59.189Z,11.51
2022-09-20T07:22:27.929Z,11.50
2022-09-20T07:24:55.585Z,11.52
2022-09-20T07:27:26.385Z,11.49
2022-09-20T07:29:56.623Z,11.60
2022-09-20T07:32:24.301Z,11.67
2022-09-20T07:34:51.957Z,11.61
2022-09-20T07:37:19.988Z,11.59
2022-09-20T07:39:47.596Z,11.71
2022-09-20T07:42:15.313Z,11.85
2022-09-20T07:44:43.353Z,11.79
2022-09-20T07:47:11.394Z,11.81
2022-09-20T07:49:39.226Z,11.93
2022-09-20T07:52:07.795Z,11.89
2022-09-20T07:54:35.391Z,12.03
2022-09-20T07:57:05.646Z,12.01
2022-09-20T07:59:33.428Z,12.01
2022-09-20T08:02:01.181Z,12.08
2022-09-20T08:04:28.846Z,12.24
2022-09-20T08:06:57.624Z,12.32
2022-09-20T08:09:25.240Z,12.37
2022-09-20T08:11:53.197Z,12.45
2022-09-20T08:14:21.609Z,12.41
2022-09-20T08:16:50.440Z,12.49
2022-09-20T08:19:21.670Z,12.66
2022-09-20T08:21:52.626Z,12.73
2022-09-20T08:24:20.510Z,12.76
2022-09-20T08:26:48.665Z,12.87
2022-09-20T08:29:16.429Z,12.87
2022-09-20T08:31:44.482Z,13.00
2022-09-20T08:34:15.045Z,13.09
2022-09-20T08:36:51.871Z,13.09
2022-09-20T08:42:37.843Z,13.34
2022-09-20T08:45:23.438Z,13.39
2022-09-20T08:48:06.697Z,13.53
2022-09-20T08:50:34.686Z,13.58
2022-09-20T08:53:04.963Z,13.65
2022-09-20T08:55:37.510Z,13.76
2022-09-20T08:58:08.862Z,13.76
2022-09-20T09:00:39.273Z,13.82
2022-09-20T09:03:13.010Z,13.93
2022-09-20T09:05:58.222Z,13.98
2022-09-20T09:08:31.037Z,14.07
2022-09-20T09:11:19.191Z,14.14
2022-09-20T09:14:31.477Z,14.26
2022-09-20T09:17:00.905Z,14.28
2022-09-20T09:19:34.052Z,14.31
2022-09-20T09:22:05.539Z,14.34
2022-09-20T09:24:33.319Z,14.30
2022-09-20T09:27:20.117Z,14.44
2022-09-20T09:29:55.141Z,14.48
2022-09-20T09:32:32.848Z,14.53
2022-09-20T09:35:29.431Z,14.54
2022-09-20T09:38:01.678Z,14.61
2022-09-20T09:40:31.775Z,14.63
2022-09-20T09:43:02.807Z,14.64
2022-09-20T09:45:38.847Z,14.73
2022-09-20T09:48:26.836Z,14.81
2022-09-20T09:51:15.409Z,14.87
2022-09-20T09:53:44.994Z,14.87
2022-09-20T09:56:59.573Z,14.93
2022-09-20T10:00:20.008Z,15.07
2022-09-20T10:03:11.722Z,15.11
2022-09-20T10:06:17.495Z,15.10
2022-09-20T10:09:00.438Z,15.10
2022-09-20T10:12:04.318Z,14.89
2022-09-20T10:14:56.398Z,14.94
2022-09-20T10:17:54.235Z,15.00
2022-09-20T10:20:46.886Z,14.92
2022-09-20T10:24:01.555Z,14.94
2022-09-20T10:27:07.029Z,14.84
2022-09-20T10:30:02.011Z,14.82
2022-09-20T10:32:49.987Z,14.77
2022-09-20T10:35:25.065Z,14.69
2022-09-20T10:38:26.339Z,14.55
2022-09-20T10:41:37.188Z,14.64
2022-09-20T10:44:19.782Z,14.70
2022-09-20T10:47:14.541Z,14.80
2022-09-20T10:50:09.868Z,14.91
2022-09-20T10:53:09.201Z,15.00
2022-09-20T10:56:08.392Z,15.08
2022-09-20T10:58:54.233Z,15.13
2022-09-20T11:02:13.348Z,15.23
2022-09-20T11:05:28.577Z,15.34
2022-09-20T11:08:29.149Z,15.33
2022-09-20T11:11:12.449Z,15.34
2022-09-20T11:13:54.447Z,15.41
2022-09-20T11:16:48.766Z,15.45
2022-09-20T11:19:34.750Z,15.50
2022-09-20T11:22:13.442Z,15.53
2022-09-20T11:25:06.339Z,15.60
2022-09-20T11:27:41.985Z,15.64
2022-09-20T11:30:22.883Z,15.46
2022-09-20T11:33:05.410Z,15.54
2022-09-20T11:35:55.352Z,15.32
2022-09-20T11:38:36.850Z,15.18
2022-09-20T11:41:25.862Z,15.12
2022-09-20T11:44:00.620Z,14.95
2022-09-20T11:46:38.806Z,14.88
2022-09-20T11:50:00.153Z,14.79
2022-09-20T11:53:08.388Z,14.77
2022-09-20T11:56:17.289Z,14.90
2022-09-20T11:59:01.051Z,14.86
2022-09-20T12:01:41.774Z,14.87
2022-09-20T12:04:38.985Z,14.92
2022-09-20T12:07:35.041Z,14.88
2022-09-20T12:10:22.067Z,14.98
2022-09-20T12:12:59.598Z,15.02
2022-09-20T12:15:41.898Z,14.92
2022-09-20T12:18:29.269Z,15.10
2022-09-20T12:21:18.452Z,15.16
2022-09-20T12:24:00.480Z,14.98
2022-09-20T12:26:28.073Z,15.06
2022-09-20T12:29:02.523Z,15.09
2022-09-20T12:31:32.150Z,15.13
2022-09-20T12:34:26.126Z,15.29
2022-09-20T12:36:53.844Z,15.22
2022-09-20T12:39:34.779Z,15.39
2022-09-20T12:42:28.345Z,15.52
2022-09-20T12:45:08.203Z,15.47
2022-09-20T12:47:38.207Z,15.59
2022-09-20T12:50:33.477Z,15.75
2022-09-20T12:53:12.620Z,15.87
2022-09-20T12:55:54.989Z,15.98
2022-09-20T12:58:28.569Z,16.07
2022-09-20T13:00:59.453Z,16.20
2022-09-20T13:03:45.512Z,16.16
2022-09-20T13:06:17.504Z,16.22
2022-09-20T13:09:00.105Z,16.27
2022-09-20T13:11:52.630Z,16.25
2022-09-20T13:14:31.365Z,16.33
2022-09-20T13:17:13.857Z,16.29
2022-09-20T13:19:50.819Z,16.41
2022-09-20T13:22:26.026Z,16.38
2022-09-20T13:24:59.980Z,16.42
2022-09-20T13:27:34.661Z,16.35
2022-09-20T13:30:26.951Z,16.45
2022-09-20T13:32:55.338Z,16.51
2022-09-20T13:35:28.026Z,16.63
2022-09-20T13:38:02.078Z,16.70
2022-09-20T13:40:43.106Z,16.78
2022-09-20T13:43:49.375Z,16.81
2022-09-20T13:46:44.784Z,16.75
2022-09-20T13:49:20.777Z,16.80
2022-09-20T13:51:49.235Z,16.87
2022-09-20T13:54:32.731Z,17.05
2022-09-20T13:57:15.561Z,17.15
2022-09-20T13:59:46.782Z,17.26
2022-09-20T14:02:32.623Z,17.41
2022-09-20T14:05:07.439Z,17.48
2022-09-20T14:07:36.842Z,17.67
2022-09-20T14:10:05.225Z,17.81
2022-09-20T14:12:33.974Z,17.73
2022-09-20T14:15:08.649Z,17.76
2022-09-20T14:17:36.666Z,17.74
2022-09-20T14:20:05.964Z,17.82
2022-09-20T14:22:33.843Z,17.77
2022-09-20T14:25:25.388Z,17.97
2022-09-20T14:28:19.823Z,17.72
2022-09-20T14:30:48.542Z,17.72
2022-09-20T14:33:21.305Z,17.87
2022-09-20T14:35:52.864Z,18.07
2022-09-20T14:38:26.217Z,18.05
2022-09-20T14:40:54.412Z,18.17
2022-09-20T14:43:33.882Z,18.23
2022-09-20T14:46:18.294Z,18.29
2022-09-20T14:48:45.983Z,18.00
2022-09-20T14:51:17.962Z,18.25
2022-09-20T14:53:48.675Z,18.33
2022-09-20T14:56:27.067Z,17.97
2022-09-20T14:59:25.967Z,17.75
2022-09-20T15:02:10.306Z,17.62
2022-09-20T15:04:40.156Z,17.38
2022-09-20T15:07:11.818Z,17.45
2022-09-20T15:09:39.650Z,17.54
2022-09-20T15:12:14.502Z,17.47
2022-09-20T15:14:42.418Z,17.30
2022-09-20T15:17:21.875Z,17.41
2022-09-20T15:19:50.159Z,17.35
2022-09-20T15:22:17.981Z,17.43
2022-09-20T15:24:45.809Z,17.45
2022-09-20T15:27:13.485Z,17.43
2022-09-20T15:29:41.168Z,17.59
2022-09-20T15:32:12.263Z,17.50
2022-09-20T15:34:40.216Z,17.60
2022-09-20T15:37:08.007Z,17.58
2022-09-20T15:39:35.694Z,17.55
2022-09-20T15:42:04.043Z,17.43
2022-09-20T15:44:32.760Z,17.38
2022-09-20T15:47:00.468Z,17.23
2022-09-20T15:49:28.786Z,17.34
2022-09-20T15:51:57.136Z,17.36
2022-09-20T15:54:26.722Z,17.41
2022-09-20T15:56:54.346Z,17.30
2022-09-20T15:59:23.400Z,17.11
2022-09-20T16:01:51.738Z,17.25
2022-09-20T16:04:20.363Z,17.22
2022-09-20T16:06:50.169Z,17.07
2022-09-20T16:09:19.171Z,17.14
2022-09-20T16:11:48.279Z,16.93
2022-09-20T16:14:17.493Z,17.06
2022-09-20T16:16:45.181Z,17.05
2022-09-20T16:19:20.770Z,17.09
2022-09-20T16:21:58.565Z,17.04
2022-09-20T16:24:33.228Z,16.95
2022-09-20T16:27:03.628Z,17.01
2022-09-20T16:29:32.314Z,16.93
2022-09-20T16:32:03.618Z,17.08
2022-09-20T16:34:34.955Z,17.07
2022-09-20T16:37:08.876Z,17.02
2022-09-20T16:39:36.583Z,16.93
2022-09-20T16:42:07.567Z,16.86
2022-09-20T16:44:37.533Z,16.86
2022-09-20T16:47:10.653Z,16.87
2022-09-20T16:49:39.645Z,16.77
2022-09-20T16:52:11.206Z,16.91
2022-09-20T16:54:41.004Z,16.79
2022-09-20T16:57:09.800Z,16.75
2022-09-20T16:59:37.365Z,16.77
2022-09-20T17:02:05.009Z,16.87
2022-09-20T17:04:32.711Z,16.78
2022-09-20T17:07:00.632Z,16.80
2022-09-20T17:09:28.855Z,16.63
2022-09-20T17:11:56.483Z,16.61
2022-09-20T17:14:24.988Z,16.56
2022-09-20T17:16:52.652Z,16.52
2022-09-20T17:19:21.156Z,16.49
2022-09-20T17:21:51.443Z,16.52
2022-09-20T17:24:21.528Z,16.49
2022-09-20T17:26:50.842Z,16.42
2022-09-20T17:29:20.223Z,16.47
2022-09-20T17:31:55.698Z,16.45
2022-09-20T17:34:25.515Z,16.40
2022-09-20T17:36:54.987Z,16.36
2022-09-20T17:39:23.230Z,16.27
2022-09-20T17:42:06.988Z,16.17
2022-09-20T17:44:37.533Z,16.22
2022-09-20T17:47:06.321Z,16.09
2022-09-20T17:49:34.796Z,15.99
2022-09-20T17:52:02.376Z,15.95
2022-09-20T17:54:32.353Z,15.97
2022-09-20T17:57:00.213Z,15.82
2022-09-20T17:59:28.497Z,15.72
2022-09-20T18:01:56.095Z,15.73
2022-09-20T18:04:26.863Z,15.70
2022-09-20T18:06:55.615Z,15.71
2022-09-20T18:09:27.106Z,15.58
2022-09-20T18:11:55.907Z,15.57
2022-09-20T18:14:27.546Z,15.52
2022-09-20T18:17:00.824Z,15.46
2022-09-20T18:19:33.263Z,15.50
2022-09-20T18:22:02.608Z,15.38
2022-09-20T18:24:31.613Z,15.39
2022-09-20T18:27:00.768Z,15.29
2022-09-20T18:29:29.308Z,15.31
2022-09-20T18:31:57.950Z,15.26
2022-09-20T18:34:33.283Z,15.16
2022-09-20T18:37:03.689Z,15.14
2022-09-20T18:39:34.875Z,15.14
2022-09-20T18:42:03.863Z,15.12
2022-09-20T18:44:33.911Z,14.92
2022-09-20T18:47:03.874Z,14.98
2022-09-20T18:49:32.429Z,14.88
2022-09-20T18:52:00.236Z,14.92
2022-09-20T18:54:33.248Z,15.04
2022-09-20T18:57:01.423Z,14.93
2022-09-20T18:59:29.773Z,14.89
2022-09-20T19:02:52.089Z,14.90
2022-09-20T19:05:55.686Z,14.81
2022-09-20T19:08:35.035Z,14.72
2022-09-20T19:11:11.464Z,14.56
2022-09-20T19:14:00.703Z,14.62
2022-09-20T19:16:34.352Z,14.48
2022-09-20T19:20:03.080Z,14.50
2022-09-20T19:23:16.281Z,14.45
2022-09-20T19:25:47.524Z,14.33
2022-09-20T19:28:16.505Z,14.33
2022-09-20T19:30:45.567Z,14.37
2022-09-20T19:33:18.767Z,14.25
2022-09-20T19:35:51.471Z,14.27
2022-09-20T19:38:51.940Z,14.27
2022-09-20T19:41:50.994Z,14.18
2022-09-20T19:44:36.322Z,14.20
2022-09-20T19:47:48.440Z,14.17
2022-09-20T19:50:28.079Z,14.14
2022-09-20T19:52:56.427Z,14.04
2022-09-20T19:55:24.874Z,14.04
2022-09-20T19:57:53.441Z,13.92
2022-09-20T20:00:21.930Z,13.87
2022-09-20T20:02:50.438Z,13.89
2022-09-20T20:05:25.568Z,13.82
2022-09-20T20:08:21.142Z,13.88
2022-09-20T20:11:09.978Z,13.86
2022-09-20T20:14:04.230Z,13.86
2022-09-20T20:17:05.081Z,13.83
2022-09-20T20:19:48.332Z,13.79
2022-09-20T20:22:35.689Z,13.77
2022-09-20T20:25:04.303Z,13.69
2022-09-20T20:27:32.612Z,13.63
2022-09-20T20:30:00.349Z,13.65
2022-09-20T20:32:28.125Z,13.62
2022-09-20T20:34:55.679Z,13.52
2022-09-20T20:37:24.580Z,13.52
2022-09-20T20:39:52.205Z,13.54
2022-09-20T20:42:21.008Z,13.44
2022-09-20T20:44:48.633Z,13.49
2022-09-20T20:47:16.227Z,13.48
2022-09-20T20:49:43.962Z,13.43
2022-09-20T20:52:12.531Z,13.42
2022-09-20T20:54:40.208Z,13.28
2022-09-20T20:57:07.819Z,13.29
2022-09-20T20:59:35.386Z,13.34
2022-09-20T21:02:07.628Z,13.22
2022-09-20T21:04:36.989Z,13.17
2022-09-20T21:07:04.636Z,13.16
2022-09-20T21:09:32.218Z,13.11
2022-09-20T21:11:59.922Z,13.12
2022-09-20T21:14:27.506Z,13.16
2022-09-20T21:16:55.151Z,13.02
2022-09-20T21:19:23.927Z,13.09
2022-09-20T21:21:51.571Z,13.10
2022-09-20T21:24:19.302Z,13.05
2022-09-20T21:26:47.543Z,12.98
2022-09-20T21:29:16.662Z,12.97
2022-09-20T21:31:47.007Z,12.94
2022-09-20T21:34:16.399Z,12.97
2022-09-20T21:36:45.051Z,12.99
2022-09-20T21:39:13.155Z,12.89
2022-09-20T21:41:41.526Z,12.97
2022-09-20T21:44:12.551Z,12.88
2022-09-20T21:46:48.876Z,12.93
2022-09-20T21:49:16.700Z,12.84
2022-09-20T21:51:45.225Z,12.86
2022-09-20T21:54:13.122Z,12.90
2022-09-20T21:56:41.507Z,12.90
2022-09-20T21:59:09.702Z,12.81
2022-09-20T22:01:40.353Z,12.71
2022-09-20T22:04:10.923Z,12.78
2022-09-20T22:06:44.353Z,12.73
2022-09-20T22:09:15.854Z,12.71
2022-09-20T22:11:46.540Z,12.81
2022-09-20T22:14:17.461Z,12.69
2022-09-20T22:16:47.585Z,12.85
2022-09-20T22:19:17.234Z,12.88
2022-09-20T22:21:48.253Z,12.80
2022-09-20T22:24:17.557Z,12.92
2022-09-20T22:26:49.161Z,12.99
2022-09-20T22:29:17.885Z,12.95
2022-09-20T22:31:47.961Z,13.10
2022-09-20T22:34:23.813Z,13.02
2022-09-20T22:36:52.495Z,13.05
2022-09-20T22:39:20.340Z,12.94
2022-09-20T22:41:48.334Z,13.02
2022-09-20T22:44:16.462Z,12.88
2022-09-20T22:46:44.496Z,12.95
2022-09-20T22:49:12.845Z,12.98
2022-09-20T22:51:40.901Z,12.90
2022-09-20T22:54:11.593Z,13.01
2022-09-20T22:56:43.382Z,13.01
2022-09-20T22:59:14.209Z,12.97
2022-09-20T23:01:47.719Z,12.98
2022-09-20T23:04:19.275Z,13.07
2022-09-20T23:06:54.585Z,12.95
2022-09-20T23:09:26.617Z,12.89
2022-09-20T23:11:54.576Z,12.84
2022-09-20T23:14:23.262Z,12.91
2022-09-20T23:35:27.526Z,12.98
2022-09-20T23:37:56.408Z,13.01
2022-09-20T23:40:24.349Z,12.95
2022-09-20T23:42:52.188Z,13.09
2022-09-20T23:45:19.981Z,13.05
2022-09-20T23:47:48.331Z,13.16
2022-09-20T23:50:16.321Z,13.08
2022-09-20T23:52:44.127Z,13.11
2022-09-20T23:55:12.105Z,13.02
2022-09-20T23:57:40.115Z,12.98
